Time;durP1;ratioP1;P1;durP2;ratioP2;P2;SDS_P1;SDS_P2;PMS_P1;PMS_P2;Temp;Humidity;BMP_temperature;BMP_pressure;BME280_temperature;BME280_humidity;BME280_pressure;Samples;Min_cycle;Max_cycle;Signal;HPM_P1;HPM_P2
2021/04/24 02:39:35;;;;;;;13.50;12.30;;;24.70;68.50;;;;;;6186398;22;1441306;-43
2021/04/24 02:42:03;;;;;;;13.83;12.73;;;24.70;68.60;;;;;;6249635;23;20305;-43
2021/04/24 02:44:30;;;;;;;13.07;12.03;;;24.60;68.40;;;;;;6250324;23;20779;-43
2021/04/24 02:46:57;;;;;;;12.60;11.50;;;24.70;68.60;;;;;;6251204;23;20453;-42
2021/04/24 02:49:23;;;;;;;13.17;11.90;;;24.60;68.50;;;;;;6249850;23;20443;-43
2021/04/24 02:51:50;;;;;;;12.07;11.27;;;24.60;68.50;;;;;;6251061;23;20454;-42
2021/04/24 02:54:17;;;;;;;12.23;11.40;;;24.70;68.60;;;;;;6249569;23;20460;-44
2021/04/24 02:56:44;;;;;;;12.80;11.83;;;24.70;68.70;;;;;;6249135;23;20467;-43
2021/04/24 02:59:10;;;;;;;13.23;12.00;;;24.70;68.60;;;;;;6248432;23;20448;-44
2021/04/24 03:01:37;;;;;;;12.73;11.53;;;24.70;68.60;;;;;;6223596;23;20436;-42
2021/04/24 03:04:04;;;;;;;12.13;11.20;;;24.70;68.60;;;;;;6248356;23;20475;-43
2021/04/24 03:06:31;;;;;;;13.40;12.20;;;24.70;68.60;;;;;;6248646;23;20437;-44
2021/04/24 03:08:57;;;;;;;12.67;11.60;;;24.70;68.60;;;;;;6251054;23;20525;-43
2021/04/24 03:11:24;;;;;;;12.57;11.67;;;24.70;68.60;;;;;;6223256;23;20452;-42
2021/04/24 03:13:52;;;;;;;12.10;11.30;;;24.70;68.60;;;;;;6249608;23;20443;-42
2021/04/24 03:16:18;;;;;;;13.40;12.43;;;24.70;68.60;;;;;;6248351;23;20433;-43
2021/04/24 03:18:45;;;;;;;12.33;11.33;;;24.80;68.70;;;;;;6247963;23;20444;-43
2021/04/24 03:21:11;;;;;;;13.07;12.00;;;24.70;68.70;;;;;;6247860;23;20794;-43
2021/04/24 03:23:38;;;;;;;13.13;12.13;;;24.70;68.70;;;;;;6247017;23;20456;-44
2021/04/24 03:26:05;;;;;;;13.00;11.80;;;24.80;68.70;;;;;;6246631;23;20829;-44
2021/04/24 03:28:31;;;;;;;12.43;11.60;;;24.70;68.70;;;;;;6247231;23;21165;-43
2021/04/24 03:30:59;;;;;;;13.57;12.30;;;24.80;68.80;;;;;;6248221;23;20439;-43
2021/04/24 03:33:25;;;;;;;13.20;12.10;;;24.70;68.70;;;;;;6250058;23;20456;-43
2021/04/24 03:35:52;;;;;;;13.57;12.30;;;24.80;68.80;;;;;;6249390;23;20620;-44
2021/04/24 03:38:19;;;;;;;13.50;12.37;;;24.80;68.80;;;;;;6248194;23;20456;-44
2021/04/24 03:40:45;;;;;;;12.50;11.40;;;24.80;68.80;;;;;;6249457;23;20447;-43
2021/04/24 03:43:12;;;;;;;12.37;11.47;;;24.80;68.80;;;;;;6252726;23;20435;-42
2021/04/24 03:45:39;;;;;;;13.53;12.20;;;24.80;68.80;;;;;;6252777;23;20536;-44
2021/04/24 03:48:07;;;;;;;12.30;11.30;;;24.80;68.70;;;;;;6249982;23;20451;-43
2021/04/24 03:50:34;;;;;;;12.00;11.10;;;24.80;68.70;;;;;;6251456;23;20646;-44
2021/04/24 03:53:01;;;;;;;13.17;12.10;;;24.80;68.70;;;;;;6252663;23;20672;-43
2021/04/24 03:55:27;;;;;;;12.40;11.20;;;24.80;68.70;;;;;;6225151;23;20504;-43
2021/04/24 03:57:54;;;;;;;12.40;11.50;;;24.80;68.70;;;;;;6249610;23;20503;-43
2021/04/24 04:00:23;;;;;;;12.70;11.60;;;24.80;68.70;;;;;;6250684;23;20438;-43
2021/04/24 04:02:52;;;;;;;13.70;12.60;;;24.90;68.80;;;;;;6249223;23;20682;-43
2021/04/24 04:05:19;;;;;;;13.53;12.43;;;24.80;68.70;;;;;;6250559;23;20456;-43
2021/04/24 04:07:46;;;;;;;13.93;12.83;;;24.90;68.80;;;;;;6253916;23;20809;-44
2021/04/24 04:10:15;;;;;;;13.87;12.67;;;24.90;68.80;;;;;;6251218;23;20858;-44
2021/04/24 04:12:43;;;;;;;13.73;12.63;;;24.90;68.70;;;;;;6225244;23;20678;-44
2021/04/24 04:15:11;;;;;;;13.50;12.57;;;24.90;68.70;;;;;;6252239;23;20786;-44
2021/04/24 04:17:38;;;;;;;13.40;12.40;;;24.90;68.80;;;;;;6251915;23;20439;-44
2021/04/24 04:20:07;;;;;;;13.03;12.03;;;24.90;68.70;;;;;;6251600;23;20796;-44
2021/04/24 04:22:34;;;;;;;13.00;12.00;;;24.90;68.70;;;;;;6226141;23;20853;-43
2021/04/24 04:25:01;;;;;;;13.70;12.60;;;24.90;68.80;;;;;;6252160;23;20536;-43
2021/04/24 04:27:28;;;;;;;13.27;12.03;;;24.90;68.80;;;;;;6252561;23;20445;-44
2021/04/24 04:29:54;;;;;;;12.87;11.97;;;24.90;68.80;;;;;;6253737;23;20716;-43
2021/04/24 04:32:21;;;;;;;12.73;11.83;;;24.90;68.80;;;;;;6253655;23;20449;-42
2021/04/24 04:34:48;;;;;;;12.57;11.60;;;24.90;68.80;;;;;;6248368;23;20833;-42
2021/04/24 04:37:14;;;;;;;12.10;11.23;;;24.90;68.80;;;;;;6247499;23;20513;-44
2021/04/24 04:39:42;;;;;;;13.60;12.50;;;24.90;68.80;;;;;;6250631;23;20448;-44
2021/04/24 04:42:09;;;;;;;12.90;11.93;;;25.00;68.90;;;;;;6249662;23;20776;-43
2021/04/24 04:44:35;;;;;;;12.40;11.37;;;25.00;68.90;;;;;;6248647;23;20452;-43
2021/04/24 04:47:02;;;;;;;12.70;11.80;;;25.00;68.90;;;;;;6249754;23;20451;-44
2021/04/24 04:49:28;;;;;;;12.07;11.27;;;25.00;68.90;;;;;;6249349;23;20652;-44
2021/04/24 04:51:55;;;;;;;12.23;11.40;;;25.00;68.90;;;;;;6251150;23;20642;-43
2021/04/24 04:54:22;;;;;;;12.83;11.83;;;25.00;68.90;;;;;;6224398;23;20450;-42
2021/04/24 04:56:49;;;;;;;12.80;11.80;;;25.00;68.90;;;;;;6250841;23;20753;-44
2021/04/24 04:59:15;;;;;;;13.43;12.23;;;25.00;68.80;;;;;;6250853;23;20441;-43
2021/04/24 05:01:42;;;;;;;12.53;11.60;;;25.00;68.90;;;;;;6249343;23;20452;-42
2021/04/24 05:04:09;;;;;;;12.50;11.60;;;25.00;68.90;;;;;;6251806;23;20440;-42
2021/04/24 05:06:35;;;;;;;12.07;11.17;;;25.00;68.90;;;;;;6250361;23;20900;-43
2021/04/24 05:09:02;;;;;;;12.70;11.80;;;25.00;68.90;;;;;;6248381;23;20799;-42
2021/04/24 05:11:28;;;;;;;12.87;11.63;;;25.00;68.90;;;;;;6248906;23;20476;-43
2021/04/24 05:13:56;;;;;;;12.40;11.50;;;25.00;68.90;;;;;;6249548;23;20444;-44
2021/04/24 05:16:22;;;;;;;12.37;11.47;;;25.00;68.90;;;;;;6249237;23;20716;-43
2021/04/24 05:18:49;;;;;;;11.80;11.00;;;25.00;68.90;;;;;;6248392;23;20753;-42
2021/04/24 05:21:16;;;;;;;11.53;10.73;;;25.00;68.90;;;;;;6248155;23;20561;-43
2021/04/24 05:23:42;;;;;;;12.50;11.40;;;25.00;69.00;;;;;;6248982;23;20448;-42
2021/04/24 05:26:09;;;;;;;12.20;11.40;;;25.00;68.90;;;;;;6248832;23;20825;-43
2021/04/24 05:28:35;;;;;;;12.83;11.83;;;25.00;69.00;;;;;;6249136;23;20557;-45
2021/04/24 05:31:03;;;;;;;12.13;11.20;;;25.00;69.10;;;;;;6249478;23;20449;-43
2021/04/24 05:33:29;;;;;;;12.47;11.63;;;25.00;69.10;;;;;;6249105;23;20456;-43
2021/04/24 05:35:56;;;;;;;11.80;11.10;;;25.00;69.20;;;;;;6245031;23;21040;-43
2021/04/24 05:38:22;;;;;;;11.90;11.00;;;24.90;69.10;;;;;;6247585;23;20462;-42
2021/04/24 05:40:49;;;;;;;12.13;11.20;;;24.90;69.20;;;;;;6248439;23;20454;-43
2021/04/24 05:43:16;;;;;;;11.53;10.63;;;25.00;69.30;;;;;;6250206;23;20662;-43
2021/04/24 05:45:42;;;;;;;12.10;11.20;;;24.90;69.20;;;;;;6245207;23;20456;-43
2021/04/24 05:48:10;;;;;;;11.87;11.07;;;24.90;69.30;;;;;;6247715;23;20767;-43
2021/04/24 05:50:37;;;;;;;12.27;11.37;;;24.90;69.40;;;;;;6248773;23;20457;-44
2021/04/24 05:53:03;;;;;;;12.70;11.80;;;24.90;69.40;;;;;;6249340;23;21064;-44
2021/04/24 05:55:30;;;;;;;12.50;11.60;;;24.90;69.40;;;;;;6247560;23;20512;-44
2021/04/24 05:57:56;;;;;;;11.87;11.07;;;24.90;69.50;;;;;;6246975;23;20469;-43
2021/04/24 06:00:24;;;;;;;12.97;11.97;;;24.90;69.50;;;;;;6247033;23;20437;-43
2021/04/24 06:02:50;;;;;;;12.17;11.27;;;24.80;69.40;;;;;;6245457;23;20442;-44
2021/04/24 06:05:18;;;;;;;11.93;11.07;;;24.80;69.40;;;;;;6248567;23;20447;-45
2021/04/24 06:07:45;;;;;;;12.50;11.47;;;24.90;69.60;;;;;;6247893;23;20657;-44
2021/04/24 06:10:14;;;;;;;12.30;11.47;;;24.80;69.60;;;;;;6248805;23;20481;-43
2021/04/24 06:12:41;;;;;;;12.10;11.20;;;24.80;69.60;;;;;;6249210;23;20447;-43
2021/04/24 06:15:10;;;;;;;12.10;11.17;;;24.80;69.70;;;;;;6247599;23;20440;-43
2021/04/24 06:17:37;;;;;;;12.67;11.57;;;24.80;70.10;;;;;;6247424;23;20452;-44
2021/04/24 06:20:09;;;;;;;12.87;11.87;;;24.80;70.00;;;;;;6249400;23;20619;-44
2021/04/24 06:22:37;;;;;;;12.70;11.70;;;24.80;70.20;;;;;;6246744;23;20447;-43
2021/04/24 06:25:04;;;;;;;11.33;10.53;;;24.80;70.50;;;;;;6247250;23;20548;-42
2021/04/24 06:27:31;;;;;;;12.37;11.37;;;24.80;70.70;;;;;;6246002;23;20810;-43
2021/04/24 06:29:58;;;;;;;11.53;10.83;;;24.80;70.80;;;;;;6245012;23;20453;-43
2021/04/24 06:32:25;;;;;;;11.60;10.80;;;24.80;71.00;;;;;;6251837;23;21139;-43
2021/04/24 06:34:52;;;;;;;12.13;11.23;;;24.70;71.00;;;;;;6250896;23;20440;-44
2021/04/24 06:37:19;;;;;;;12.03;11.13;;;24.80;71.20;;;;;;6249841;23;20793;-44
2021/04/24 06:39:46;;;;;;;12.40;11.47;;;24.80;71.20;;;;;;6249416;23;20448;-44
2021/04/24 06:42:14;;;;;;;12.53;11.23;;;24.70;71.10;;;;;;6248021;23;20464;-44
2021/04/24 06:44:41;;;;;;;11.80;11.00;;;24.80;71.20;;;;;;6247903;23;20460;-44
2021/04/24 06:47:07;;;;;;;12.20;11.23;;;24.80;71.20;;;;;;6220966;23;20452;-45
2021/04/24 06:49:34;;;;;;;11.80;11.00;;;24.70;71.20;;;;;;6246895;23;20863;-44
2021/04/24 06:52:00;;;;;;;10.60;10.00;;;24.70;71.20;;;;;;6244180;23;20437;-44
2021/04/24 06:54:27;;;;;;;12.00;10.93;;;24.70;71.30;;;;;;6248483;23;20440;-45
2021/04/24 06:56:54;;;;;;;12.10;11.20;;;24.70;71.30;;;;;;6249063;23;20460;-44
2021/04/24 06:59:21;;;;;;;11.00;10.23;;;24.60;71.30;;;;;;6247502;23;21071;-44
2021/04/24 07:01:48;;;;;;;11.50;10.70;;;24.60;71.30;;;;;;6219373;23;20458;-44
2021/04/24 07:04:14;;;;;;;11.90;11.00;;;24.70;71.40;;;;;;6247504;23;20460;-44
2021/04/24 07:06:41;;;;;;;12.10;11.10;;;24.60;71.40;;;;;;6219531;23;20543;-44
2021/04/24 07:09:08;;;;;;;11.40;10.70;;;24.70;71.50;;;;;;6246198;23;20441;-44
2021/04/24 07:11:34;;;;;;;11.93;10.93;;;24.60;71.40;;;;;;6248380;23;20467;-44
2021/04/24 07:14:02;;;;;;;11.67;10.67;;;24.60;71.60;;;;;;6247480;23;20449;-44
2021/04/24 07:16:29;;;;;;;11.87;11.10;;;24.60;71.70;;;;;;6248203;23;20440;-44
2021/04/24 07:18:55;;;;;;;11.37;10.40;;;24.60;71.70;;;;;;6248338;23;20715;-43
2021/04/24 07:21:22;;;;;;;12.70;11.50;;;24.60;71.80;;;;;;6249962;23;20441;-44
2021/04/24 07:23:49;;;;;;;11.93;10.80;;;24.60;71.90;;;;;;6248902;23;20448;-42
2021/04/24 07:26:16;;;;;;;11.23;10.43;;;24.60;72.20;;;;;;6249278;23;20440;-44
2021/04/24 07:28:43;;;;;;;11.33;10.23;;;24.60;72.30;;;;;;6250673;23;20554;-44
2021/04/24 07:31:13;;;;;;;11.73;10.63;;;24.70;72.50;;;;;;6248477;23;20432;-43
2021/04/24 07:33:40;;;;;;;11.20;10.40;;;24.70;72.70;;;;;;6247848;23;20464;-44
2021/04/24 07:36:07;;;;;;;11.33;10.43;;;24.70;72.70;;;;;;6249632;23;20585;-45
2021/04/24 07:38:33;;;;;;;12.77;11.77;;;24.60;72.70;;;;;;6250143;23;20456;-45
2021/04/24 07:41:01;;;;;;;10.77;9.87;;;24.70;72.80;;;;;;6250466;23;20451;-43
2021/04/24 07:43:29;;;;;;;12.30;11.30;;;24.70;72.80;;;;;;6251029;23;20577;-43
2021/04/24 07:45:56;;;;;;;11.43;10.43;;;24.70;72.70;;;;;;6249800;23;20543;-42
2021/04/24 07:48:23;;;;;;;12.27;11.30;;;24.70;72.70;;;;;;6248899;23;20436;-44
2021/04/24 07:50:49;;;;;;;11.87;10.23;;;24.70;72.90;;;;;;6249583;23;20451;-46
2021/04/24 07:53:16;;;;;;;11.00;10.10;;;24.70;73.00;;;;;;6247802;23;20452;-45
2021/04/24 07:55:43;;;;;;;13.97;10.27;;;24.70;73.00;;;;;;6249489;23;20493;-47
2021/04/24 07:58:10;;;;;;;11.20;9.60;;;24.60;73.00;;;;;;6224007;23;20558;-41
2021/04/24 08:00:37;;;;;;;10.90;9.90;;;24.60;73.00;;;;;;6248292;23;20477;-45
2021/04/24 08:03:04;;;;;;;11.30;10.37;;;24.60;72.90;;;;;;6246219;23;20467;-47
2021/04/24 08:05:32;;;;;;;10.80;9.80;;;24.70;73.10;;;;;;6247524;23;20440;-47
2021/04/24 08:08:00;;;;;;;11.70;10.60;;;24.60;73.00;;;;;;6249506;23;20466;-50
2021/04/24 08:10:27;;;;;;;11.50;10.50;;;24.60;73.00;;;;;;6248197;23;20658;-43
2021/04/24 08:12:53;;;;;;;11.83;10.90;;;24.60;73.00;;;;;;6245598;23;21082;-41
2021/04/24 08:15:21;;;;;;;11.03;10.23;;;24.50;58.90;;;;;;6246969;23;20439;-47
2021/04/24 08:17:50;;;;;;;10.63;9.90;;;24.50;63.90;;;;;;6219161;23;20670;-43
2021/04/24 08:20:17;;;;;;;11.47;10.67;;;24.40;59.60;;;;;;6250290;23;20450;-42
2021/04/24 08:22:48;;;;;;;10.80;9.90;;;24.40;65.30;;;;;;6247406;23;20443;-44
2021/04/24 08:25:17;;;;;;;11.77;10.97;;;24.50;67.50;;;;;;6244931;23;20905;-42
2021/04/24 08:27:44;;;;;;;11.33;10.47;;;24.30;54.20;;;;;;6247904;23;20463;-43
2021/04/24 08:30:13;;;;;;;11.10;10.30;;;23.90;49.00;;;;;;6248025;23;20437;-43
2021/04/24 08:32:40;;;;;;;10.90;9.93;;;23.60;49.30;;;;;;6244812;23;20440;-43
2021/04/24 08:35:08;;;;;;;12.63;11.53;;;23.50;53.10;;;;;;6245903;23;21025;-43
2021/04/24 08:37:35;;;;;;;10.10;9.40;;;23.70;56.30;;;;;;6247031;23;20460;-42
2021/04/24 08:40:04;;;;;;;9.70;9.00;;;23.80;59.60;;;;;;6247512;23;20562;-44
2021/04/24 08:42:31;;;;;;;10.70;9.80;;;23.90;61.70;;;;;;6248091;23;20441;-44
2021/04/24 08:45:00;;;;;;;11.07;10.07;;;24.00;62.90;;;;;;6247130;23;20456;-42
2021/04/24 08:47:30;;;;;;;11.07;10.03;;;24.10;63.70;;;;;;6243905;23;20523;-43
2021/04/24 08:49:57;;;;;;;9.97;9.30;;;24.20;64.60;;;;;;6246293;23;21032;-43
2021/04/24 08:52:24;;;;;;;10.33;9.53;;;24.20;65.00;;;;;;6247871;23;20693;-44
2021/04/24 08:54:51;;;;;;;10.17;9.27;;;24.20;65.20;;;;;;6246694;23;20454;-44
2021/04/24 08:57:18;;;;;;;10.23;9.43;;;24.20;65.40;;;;;;6247025;23;21060;-42
2021/04/24 08:59:45;;;;;;;10.07;9.17;;;24.20;65.60;;;;;;6247977;23;20753;-44
2021/04/24 09:02:12;;;;;;;10.47;9.67;;;24.30;66.00;;;;;;6248001;23;20428;-43
2021/04/24 09:04:38;;;;;;;12.63;9.83;;;24.20;66.10;;;;;;6248845;23;20824;-42
2021/04/24 09:07:05;;;;;;;11.93;9.57;;;24.20;66.30;;;;;;6249370;23;20548;-43
2021/04/24 09:09:32;;;;;;;10.63;9.70;;;24.20;57.30;;;;;;6249620;23;20440;-41
2021/04/24 09:12:01;;;;;;;12.40;9.33;;;24.20;62.80;;;;;;6248267;23;20854;-43
2021/04/24 09:14:33;;;;;;;10.17;9.37;;;24.20;65.70;;;;;;6247587;23;20794;-41
2021/04/24 09:17:00;;;;;;;9.57;8.83;;;24.20;66.20;;;;;;6247026;23;20471;-43
2021/04/24 09:19:32;;;;;;;10.10;9.30;;;24.20;66.50;;;;;;6246783;23;20459;-43
2021/04/24 09:22:15;;;;;;;9.70;8.90;;;24.20;66.80;;;;;;6245373;23;20453;-44
2021/04/24 09:24:42;;;;;;;11.90;9.70;;;24.20;67.10;;;;;;6245500;23;20448;-42
2021/04/24 09:27:09;;;;;;;10.27;9.30;;;24.20;67.40;;;;;;6243098;23;20700;-41
2021/04/24 09:29:37;;;;;;;14.07;10.37;;;24.30;67.70;;;;;;6244510;23;20819;-43
2021/04/24 09:32:14;;;;;;;9.70;8.97;;;24.30;67.90;;;;;;6245387;23;20451;-42
2021/04/24 09:34:41;;;;;;;10.57;9.57;;;24.30;68.10;;;;;;6245912;23;20448;-43
2021/04/24 09:37:15;;;;;;;11.20;9.97;;;24.30;68.30;;;;;;6248179;23;20462;-43
2021/04/24 09:39:45;;;;;;;11.07;10.13;;;24.30;68.50;;;;;;6248007;23;20476;-42
2021/04/24 09:42:30;;;;;;;11.30;10.20;;;24.30;65.80;;;;;;6246065;23;20455;-43
2021/04/24 09:44:58;;;;;;;11.07;10.00;;;24.30;67.10;;;;;;6246191;23;20501;-43
2021/04/24 09:47:39;;;;;;;13.00;10.20;;;24.30;67.30;;;;;;6245324;23;20822;-43
2021/04/24 09:50:14;;;;;;;11.63;10.60;;;24.30;67.60;;;;;;6245093;23;20443;-42
2021/04/24 09:52:41;;;;;;;9.83;9.07;;;24.30;67.80;;;;;;6247226;23;20779;-43
2021/04/24 09:55:14;;;;;;;10.43;9.33;;;24.30;68.00;;;;;;6245101;23;20454;-44
2021/04/24 09:57:40;;;;;;;9.67;8.77;;;24.30;68.10;;;;;;6242561;23;20485;-43
2021/04/24 10:00:14;;;;;;;9.60;8.80;;;24.30;68.30;;;;;;6243970;23;20451;-43
2021/04/24 10:02:44;;;;;;;10.53;9.43;;;24.30;68.40;;;;;;6245128;23;20466;-42
2021/04/24 10:05:14;;;;;;;10.57;9.63;;;24.30;68.50;;;;;;6244749;23;20471;-42
2021/04/24 10:07:43;;;;;;;12.07;9.27;;;24.30;68.60;;;;;;6217810;23;20711;-42
2021/04/24 10:10:11;;;;;;;10.47;9.50;;;24.30;68.60;;;;;;6245677;23;20471;-45
2021/04/24 10:12:38;;;;;;;9.83;9.13;;;24.30;68.60;;;;;;6243627;23;20436;-42
2021/04/24 10:15:06;;;;;;;11.07;10.17;;;24.30;68.70;;;;;;6242681;23;20642;-43
2021/04/24 10:17:35;;;;;;;11.13;10.13;;;24.30;68.70;;;;;;6217061;23;20450;-43
2021/04/24 10:20:02;;;;;;;11.60;10.60;;;24.30;68.70;;;;;;6245452;23;20509;-42
2021/04/24 10:22:29;;;;;;;9.87;8.97;;;24.30;68.80;;;;;;6244863;23;20466;-43
2021/04/24 10:24:55;;;;;;;10.50;9.60;;;24.30;68.90;;;;;;6246051;23;21107;-42
2021/04/24 10:27:23;;;;;;;10.10;9.30;;;24.30;68.90;;;;;;6246736;23;20460;-42
2021/04/24 10:29:50;;;;;;;9.00;8.30;;;24.30;68.90;;;;;;6247039;23;20464;-42
2021/04/24 10:32:17;;;;;;;10.10;9.17;;;24.30;68.90;;;;;;6245345;23;20446;-42
2021/04/24 10:34:45;;;;;;;9.40;8.47;;;24.30;69.00;;;;;;6218660;23;21053;-43
2021/04/24 10:37:12;;;;;;;9.37;8.67;;;24.30;69.00;;;;;;6243704;23;20444;-43
2021/04/24 10:39:40;;;;;;;10.20;9.30;;;24.30;68.90;;;;;;6245667;23;20794;-43
2021/04/24 10:42:19;;;;;;;9.87;9.23;;;24.30;68.90;;;;;;6243544;23;20437;-42
2021/04/24 10:44:50;;;;;;;9.67;9.03;;;24.30;69.00;;;;;;6243577;23;20477;-43
2021/04/24 10:47:53;;;;;;;9.27;8.67;;;24.30;69.00;;;;;;6242952;23;20875;-43
2021/04/24 10:50:22;;;;;;;9.77;8.80;;;24.30;69.20;;;;;;6242658;23;20455;-43
2021/04/24 10:52:51;;;;;;;9.80;8.97;;;24.30;69.30;;;;;;6218274;23;20456;-43
2021/04/24 10:55:29;;;;;;;9.83;9.13;;;24.30;69.40;;;;;;6245567;23;20464;-43
2021/04/24 10:57:58;;;;;;;9.90;9.10;;;24.30;69.50;;;;;;6248409;23;20543;-43
2021/04/24 11:00:48;;;;;;;11.20;10.30;;;24.30;69.60;;;;;;6249265;23;20544;-43
2021/04/24 11:03:45;;;;;;;11.77;10.70;;;24.30;59.60;;;;;;6249203;23;20721;-43
2021/04/24 11:06:13;;;;;;;11.67;10.70;;;23.90;50.40;;;;;;6247745;23;20616;-43
2021/04/24 11:08:40;;;;;;;11.60;10.50;;;23.50;47.50;;;;;;6247429;23;20440;-44
2021/04/24 11:11:10;;;;;;;12.00;10.87;;;23.20;48.00;;;;;;6249701;23;20441;-44
2021/04/24 11:13:39;;;;;;;10.87;10.10;;;23.00;47.30;;;;;;6247153;23;20444;-44
2021/04/24 11:16:08;;;;;;;11.97;10.90;;;22.90;46.90;;;;;;6244015;23;20451;-43
2021/04/24 11:18:37;;;;;;;10.17;9.33;;;23.00;47.10;;;;;;6246104;23;20731;-42
2021/04/24 11:21:06;;;;;;;13.43;12.30;;;23.00;46.70;;;;;;6246109;23;20715;-43
2021/04/24 11:23:48;;;;;;;10.50;9.70;;;23.00;46.90;;;;;;6245862;23;20455;-43
2021/04/24 11:26:18;;;;;;;11.00;9.97;;;22.90;46.10;;;;;;6244676;23;20451;-42
2021/04/24 11:29:08;;;;;;;12.40;11.40;;;23.00;47.10;;;;;;6248023;23;20463;-43
2021/04/24 11:32:07;;;;;;;11.57;10.57;;;23.00;45.80;;;;;;6245657;23;20820;-43
2021/04/24 11:34:46;;;;;;;11.20;10.20;;;23.10;46.70;;;;;;6249222;23;20493;-42
2021/04/24 11:37:35;;;;;;;12.90;11.80;;;22.80;46.10;;;;;;6249170;23;20451;-43
2021/04/24 11:40:16;;;;;;;12.13;11.27;;;22.80;43.90;;;;;;6245899;23;20547;-43
2021/04/24 11:42:53;;;;;;;11.30;10.27;;;22.70;43.30;;;;;;6247181;23;21080;-42
2021/04/24 11:46:08;;;;;;;10.53;9.83;;;22.60;44.90;;;;;;6248411;23;20470;-43
2021/04/24 11:49:03;;;;;;;10.57;9.93;;;22.70;44.80;;;;;;6249611;23;20438;-43
2021/04/24 11:51:47;;;;;;;12.43;11.30;;;22.80;47.50;;;;;;6247617;23;20952;-43
2021/04/24 11:54:20;;;;;;;11.90;10.70;;;22.80;45.70;;;;;;6246675;23;20438;-43
2021/04/24 11:56:49;;;;;;;11.93;11.03;;;22.70;43.90;;;;;;6249358;23;20486;-42
2021/04/24 11:59:23;;;;;;;10.53;9.80;;;22.70;44.80;;;;;;6249666;23;20447;-43
2021/04/24 12:01:50;;;;;;;10.83;9.83;;;22.90;47.30;;;;;;6249525;23;20446;-42
2021/04/24 12:04:25;;;;;;;12.77;10.50;;;23.10;46.40;;;;;;6248040;23;20439;-44
2021/04/24 12:07:09;;;;;;;10.80;9.90;;;23.10;44.00;;;;;;6247709;23;20628;-43
2021/04/24 12:09:50;;;;;;;11.83;10.90;;;23.10;43.50;;;;;;6248523;23;20477;-43
2021/04/24 12:12:19;;;;;;;10.90;9.87;;;23.10;42.60;;;;;;6248014;23;20662;-44
2021/04/24 12:14:46;;;;;;;11.57;10.77;;;23.00;43.10;;;;;;6247225;23;20462;-45
2021/04/24 12:17:14;;;;;;;10.57;9.80;;;22.90;42.70;;;;;;6247105;23;20451;-42
2021/04/24 12:19:42;;;;;;;11.27;10.23;;;22.80;42.00;;;;;;6247740;23;21054;-42
2021/04/24 12:22:14;;;;;;;14.67;9.90;;;22.80;42.40;;;;;;6249014;23;20478;-44
2021/04/24 12:25:02;;;;;;;11.87;10.87;;;22.70;43.10;;;;;;6249395;23;20575;-41
2021/04/24 12:27:33;;;;;;;10.73;9.70;;;22.70;42.90;;;;;;6248701;23;20458;-45
2021/04/24 12:30:02;;;;;;;11.50;10.60;;;22.80;42.70;;;;;;6248155;23;20447;-46
2021/04/24 12:32:34;;;;;;;11.73;10.60;;;22.70;42.30;;;;;;6247578;23;21102;-45
2021/04/24 12:35:13;;;;;;;10.53;9.73;;;22.70;41.20;;;;;;6246088;23;20852;-45
2021/04/24 12:37:41;;;;;;;9.93;9.33;;;22.70;41.70;;;;;;6247846;23;20689;-45
2021/04/24 12:40:14;;;;;;;10.80;10.00;;;22.70;40.90;;;;;;6247326;23;20526;-45
2021/04/24 12:42:42;;;;;;;10.93;10.00;;;22.70;41.30;;;;;;6247950;23;20448;-47
2021/04/24 12:45:17;;;;;;;10.93;10.23;;;22.80;40.90;;;;;;6248015;23;20467;-43
2021/04/24 12:47:47;;;;;;;10.53;9.70;;;22.80;41.60;;;;;;6246966;23;20451;-43
2021/04/24 12:50:22;;;;;;;8.77;8.27;;;22.80;41.40;;;;;;6247831;23;20467;-42
2021/04/24 12:52:51;;;;;;;9.17;8.23;;;22.90;43.90;;;;;;6247124;23;20461;-43
2021/04/24 12:55:19;;;;;;;8.40;7.83;;;23.00;45.90;;;;;;6271546;22;20451;-42
2021/04/24 12:57:52;;;;;;;8.00;7.40;;;23.20;46.80;;;;;;6253271;22;20467;-42
2021/04/24 13:00:20;;;;;;;8.07;7.60;;;23.30;47.60;;;;;;6277487;22;20448;-43
2021/04/24 13:02:48;;;;;;;8.13;7.63;;;23.50;48.20;;;;;;6278038;22;20444;-41
2021/04/24 13:05:15;;;;;;;8.37;7.70;;;23.50;48.70;;;;;;6279249;22;21030;-43
2021/04/24 13:07:42;;;;;;;8.67;8.27;;;23.60;49.30;;;;;;6279542;22;20466;-43
2021/04/24 13:10:16;;;;;;;8.23;7.73;;;23.70;49.90;;;;;;6279151;22;20554;-43
2021/04/24 13:12:58;;;;;;;10.23;8.33;;;23.70;50.30;;;;;;6276213;22;20463;-43
2021/04/24 13:15:26;;;;;;;8.17;7.67;;;23.80;50.80;;;;;;6275654;22;20501;-43
2021/04/24 13:17:53;;;;;;;8.03;7.63;;;23.80;51.20;;;;;;6274743;22;20446;-43
2021/04/24 13:20:31;;;;;;;8.07;7.57;;;23.80;51.50;;;;;;6279208;22;20431;-43
2021/04/24 13:23:12;;;;;;;8.40;8.00;;;23.90;52.00;;;;;;6279899;22;20928;-43
2021/04/24 13:25:42;;;;;;;7.23;6.93;;;23.90;52.20;;;;;;6250711;22;20440;-42
2021/04/24 13:28:10;;;;;;;7.90;7.53;;;23.90;53.00;;;;;;6280266;22;20461;-42
2021/04/24 13:30:41;;;;;;;8.10;7.60;;;23.90;52.70;;;;;;6278603;22;20455;-43
2021/04/24 13:33:08;;;;;;;7.90;7.40;;;23.90;52.90;;;;;;6278019;22;20445;-42
2021/04/24 13:35:48;;;;;;;8.47;8.07;;;23.90;53.10;;;;;;6277748;22;20494;-42
2021/04/24 13:38:16;;;;;;;8.10;7.70;;;23.90;53.30;;;;;;6278274;22;20531;-43
2021/04/24 13:40:43;;;;;;;8.47;7.80;;;23.90;53.50;;;;;;6278695;22;20495;-43
2021/04/24 13:43:28;;;;;;;7.90;7.50;;;23.90;53.70;;;;;;6277076;22;20984;-42
2021/04/24 13:45:56;;;;;;;8.07;7.57;;;23.90;53.90;;;;;;6279383;22;20666;-43
2021/04/24 13:48:28;;;;;;;8.50;8.10;;;24.00;54.10;;;;;;6277801;22;20447;-43
2021/04/24 13:50:56;;;;;;;7.90;7.30;;;23.90;54.30;;;;;;6272678;22;20571;-43
2021/04/24 13:53:23;;;;;;;8.40;7.80;;;24.00;54.60;;;;;;6276798;22;20459;-42
2021/04/24 13:55:50;;;;;;;7.87;7.40;;;24.00;54.70;;;;;;6279735;22;20438;-42
2021/04/24 13:58:21;;;;;;;7.50;7.10;;;24.00;55.00;;;;;;6278071;22;20711;-44
2021/04/24 14:00:52;;;;;;;7.87;7.37;;;24.00;55.20;;;;;;6275728;22;20990;-43
2021/04/24 14:03:20;;;;;;;7.20;6.90;;;24.00;55.30;;;;;;6276066;22;20454;-43
2021/04/24 14:05:48;;;;;;;8.60;8.07;;;24.00;55.40;;;;;;6277772;22;20454;-43
2021/04/24 14:08:20;;;;;;;7.50;7.17;;;24.00;55.60;;;;;;6279322;22;20497;-44
2021/04/24 14:10:51;;;;;;;7.53;7.10;;;24.00;55.80;;;;;;6277912;22;20439;-42
2021/04/24 14:13:18;;;;;;;8.37;7.80;;;24.00;55.90;;;;;;6278757;22;20640;-44
2021/04/24 14:15:50;;;;;;;7.13;6.80;;;24.00;56.00;;;;;;6278201;22;20906;-42
2021/04/24 14:18:16;;;;;;;7.47;7.17;;;24.00;56.20;;;;;;6278200;22;20490;-44
2021/04/24 14:20:44;;;;;;;8.90;8.40;;;24.00;56.30;;;;;;6275990;22;20470;-42
2021/04/24 14:23:18;;;;;;;8.13;7.73;;;24.00;56.40;;;;;;6280184;22;20469;-43
2021/04/24 14:25:46;;;;;;;8.50;7.60;;;24.00;56.50;;;;;;6274645;22;20512;-43
2021/04/24 14:28:14;;;;;;;7.83;7.40;;;24.00;56.70;;;;;;6276638;22;20548;-42
2021/04/24 14:30:46;;;;;;;7.60;7.20;;;24.00;56.80;;;;;;6276017;22;20466;-43
2021/04/24 14:33:17;;;;;;;7.27;6.97;;;24.00;56.90;;;;;;6252939;22;20448;-43
2021/04/24 14:35:47;;;;;;;7.33;6.93;;;24.00;57.10;;;;;;6278482;22;20474;-44
2021/04/24 14:38:16;;;;;;;7.40;7.10;;;24.10;57.30;;;;;;6278870;22;21036;-43
2021/04/24 14:40:48;;;;;;;7.30;6.90;;;24.00;57.30;;;;;;6276546;22;20858;-42
2021/04/24 14:43:17;;;;;;;7.40;7.10;;;24.00;57.50;;;;;;6280002;22;20454;-42
2021/04/24 14:45:52;;;;;;;6.70;6.40;;;24.00;57.50;;;;;;6277184;22;20535;-44
2021/04/24 14:48:20;;;;;;;8.77;8.27;;;24.00;57.70;;;;;;6277925;22;20453;-43
2021/04/24 14:50:52;;;;;;;8.10;7.50;;;24.00;57.80;;;;;;6274583;22;20434;-42
2021/04/24 14:53:22;;;;;;;7.53;7.13;;;24.00;57.80;;;;;;6275560;22;20449;-44
2021/04/24 14:55:54;;;;;;;7.33;6.93;;;24.00;57.90;;;;;;6275659;22;20539;-45
2021/04/24 14:58:27;;;;;;;7.23;6.83;;;24.00;58.00;;;;;;6277696;22;20458;-42
2021/04/24 15:01:00;;;;;;;7.20;6.70;;;24.00;58.10;;;;;;6277035;22;20461;-43
2021/04/24 15:03:29;;;;;;;7.50;7.00;;;24.00;58.20;;;;;;6276098;22;21020;-43
2021/04/24 15:06:02;;;;;;;13.10;9.23;;;24.00;58.30;;;;;;6276499;22;20581;-44
2021/04/24 15:08:35;;;;;;;10.10;9.30;;;23.90;46.80;;;;;;6278452;22;20439;-43
2021/04/24 15:11:06;;;;;;;9.50;8.90;;;23.80;43.00;;;;;;6274601;22;20758;-42
2021/04/24 15:13:35;;;;;;;9.77;9.20;;;23.60;44.40;;;;;;6279701;22;20848;-44
2021/04/24 15:16:05;;;;;;;11.83;10.90;;;23.60;43.80;;;;;;6279383;22;20474;-42
2021/04/24 15:18:33;;;;;;;10.27;9.57;;;23.60;42.40;;;;;;6280513;22;20710;-43
2021/04/24 15:21:02;;;;;;;9.87;9.17;;;23.60;41.80;;;;;;6249929;22;20462;-44
2021/04/24 15:23:34;;;;;;;9.60;9.00;;;23.50;40.90;;;;;;6275570;22;20454;-43